CheckWX is a tool to help pilots better visualize weather data.  It is not intended as a substitute for an official pre-flight weather briefing.

23:00:19 UTC

PHOG METAR
Kahului Airport
Kahului, Hawaii, USA
Current

1 hour ago

PHOG 192154Z 06016G31KT 10SM FEW035 SCT060 33/21 A2996 RMK AO2 PK WND 06031/2150 SLP150 T03280206
Observed
Jul-19 @ 21:54 UTC
Wind
  • 060° at 16 KTS
  • Gusting to 31 KTS
Visibility
10 SM
Flight Rules
VFR
Cloud Levels
  • Few at 3,500' AGL
  • Scattered at 6,000' AGL
Temperature
33°C / 91°F
Dewpoint
21°C / 70°F
Heat Index
36°C / 96°F
Humidity
49%
Altimeter
29.96" Hg
Pressure
1014.52 hPa
Previous

2 hours ago

PHOG 192054Z 06017G27KT 10SM FEW035 SCT060 32/21 A2997 RMK AO2 PK WND 05029/2031 SLP154 T03220206 58004
Observed
Jul-19 @ 20:54 UTC
Wind
  • 060° at 17 KTS
  • Gusting to 27 KTS
Visibility
10 SM
Flight Rules
VFR
Cloud Levels
  • Few at 3,500' AGL
  • Scattered at 6,000' AGL
Temperature
32°C / 90°F
Dewpoint
21°C / 70°F
Heat Index
36°C / 96°F
Humidity
52%
Altimeter
29.97" Hg
Pressure
1014.92 hPa
Previous

3 hours ago

PHOG 191954Z 06016G27KT 10SM FEW035 SCT060 31/20 A2999 RMK AO2 PK WND 06030/1923 SLP159 T03110200
Observed
Jul-19 @ 19:54 UTC
Wind
  • 060° at 16 KTS
  • Gusting to 27 KTS
Visibility
10 SM
Flight Rules
VFR
Cloud Levels
  • Few at 3,500' AGL
  • Scattered at 6,000' AGL
Temperature
31°C / 88°F
Dewpoint
20°C / 68°F
Heat Index
33°C / 92°F
Humidity
52%
Altimeter
29.99" Hg
Pressure
1015.62 hPa